createdAt,value
2019-05-20T00:01:58.001Z,14.60
2019-05-20T00:04:26.614Z,14.60
2019-05-20T00:06:55.197Z,14.60
2019-05-20T00:09:23.764Z,14.60
2019-05-20T00:11:53.773Z,14.60
2019-05-20T00:14:22.460Z,14.60
2019-05-20T00:16:51.211Z,14.60
2019-05-20T00:19:19.702Z,14.50
2019-05-20T00:21:48.202Z,14.60
2019-05-20T00:24:16.688Z,14.60
2019-05-20T00:26:45.165Z,14.60
2019-05-20T00:29:13.680Z,14.60
2019-05-20T00:31:42.186Z,14.70
2019-05-20T00:34:10.703Z,14.70
2019-05-20T00:36:39.288Z,14.70
2019-05-20T00:39:15.311Z,14.70
2019-05-20T00:41:43.928Z,14.70
2019-05-20T00:44:12.474Z,14.70
2019-05-20T00:46:41.049Z,14.70
2019-05-20T00:49:09.643Z,14.70
2019-05-20T00:51:38.128Z,14.70
2019-05-20T00:54:06.621Z,14.70
2019-05-20T00:56:35.816Z,14.70
2019-05-20T00:59:04.540Z,14.60
2019-05-20T01:01:33.077Z,14.60
2019-05-20T01:04:01.640Z,14.70
2019-05-20T01:06:30.203Z,14.70
2019-05-20T01:08:58.764Z,14.70
2019-05-20T01:11:27.322Z,14.70
2019-05-20T01:13:55.882Z,14.70
2019-05-20T01:16:24.415Z,14.70
2019-05-20T01:18:52.988Z,14.70
2019-05-20T01:21:21.533Z,14.70
2019-05-20T01:23:50.021Z,14.70
2019-05-20T01:26:18.522Z,14.60
2019-05-20T01:28:47.107Z,14.60
2019-05-20T01:31:15.593Z,14.60
2019-05-20T01:33:44.097Z,14.60
2019-05-20T01:36:12.598Z,14.60
2019-05-20T01:38:41.141Z,14.60
2019-05-20T01:41:09.648Z,14.60
2019-05-20T01:43:38.121Z,14.50
2019-05-20T01:46:06.653Z,14.60
2019-05-20T01:48:35.189Z,14.50
2019-05-20T01:51:03.892Z,14.60
2019-05-20T01:53:32.439Z,14.60
2019-05-20T01:56:01.012Z,14.60
2019-05-20T01:58:29.563Z,14.60
2019-05-20T02:00:58.088Z,14.60
2019-05-20T02:03:31.709Z,14.60
2019-05-20T02:05:57.095Z,14.50
2019-05-20T02:08:25.669Z,14.50
2019-05-20T02:10:56.589Z,14.60
2019-05-20T02:13:26.040Z,14.50
2019-05-20T02:16:04.706Z,14.50
2019-05-20T02:18:33.254Z,14.50
2019-05-20T02:21:01.953Z,14.50
2019-05-20T02:23:30.549Z,14.50
2019-05-20T02:25:59.197Z,14.50
2019-05-20T02:28:27.698Z,14.50
2019-05-20T02:30:57.182Z,14.40
2019-05-20T02:33:25.796Z,14.40
2019-05-20T02:35:54.312Z,14.40
2019-05-20T02:38:22.866Z,14.40
2019-05-20T02:40:51.416Z,14.40
2019-05-20T02:43:19.975Z,14.40
2019-05-20T02:45:48.507Z,14.30
2019-05-20T02:48:17.088Z,14.30
2019-05-20T02:50:45.595Z,14.30
2019-05-20T02:53:14.076Z,14.30
2019-05-20T02:55:42.863Z,14.30
2019-05-20T02:58:11.371Z,14.30
2019-05-20T03:00:39.917Z,14.30
2019-05-20T03:03:08.487Z,14.30
2019-05-20T03:05:37.056Z,14.30
2019-05-20T03:08:05.617Z,14.30
2019-05-20T03:10:34.229Z,14.30
2019-05-20T03:13:02.772Z,14.30
2019-05-20T03:15:31.301Z,14.30
2019-05-20T03:17:59.871Z,14.30
2019-05-20T03:20:28.429Z,14.20
2019-05-20T03:22:56.973Z,14.30
2019-05-20T03:25:25.475Z,14.20
2019-05-20T03:27:54.025Z,14.20
2019-05-20T03:30:22.637Z,14.20
2019-05-20T03:32:51.153Z,14.20
2019-05-20T03:35:19.698Z,14.30
2019-05-20T03:37:48.366Z,14.20
2019-05-20T03:40:16.893Z,14.20
2019-05-20T03:42:45.461Z,14.20
2019-05-20T03:45:14.113Z,14.20
2019-05-20T03:47:42.582Z,14.20
2019-05-20T03:50:11.374Z,14.20
2019-05-20T03:52:39.917Z,14.10
2019-05-20T03:55:08.593Z,14.10
2019-05-20T03:57:37.166Z,14.10
2019-05-20T04:00:06.267Z,14.10
2019-05-20T04:02:34.781Z,14.00
2019-05-20T04:05:03.573Z,14.00
2019-05-20T04:07:32.272Z,14.00
2019-05-20T04:10:00.818Z,13.90
2019-05-20T04:12:29.371Z,13.90
2019-05-20T04:14:57.988Z,13.90
2019-05-20T04:17:26.622Z,14.00
2019-05-20T04:19:55.266Z,14.00
2019-05-20T04:22:23.756Z,14.00
2019-05-20T04:24:52.325Z,14.00
2019-05-20T04:27:20.876Z,14.10
2019-05-20T04:29:49.448Z,14.00
2019-05-20T04:32:18.078Z,14.10
2019-05-20T04:34:46.602Z,14.10
2019-05-20T04:37:15.087Z,14.10
2019-05-20T04:39:43.615Z,14.10
2019-05-20T04:42:12.121Z,14.10
2019-05-20T04:44:40.603Z,14.00
2019-05-20T04:47:09.211Z,14.00
2019-05-20T04:49:37.775Z,14.00
2019-05-20T04:52:06.356Z,14.00
2019-05-20T04:54:34.864Z,14.00
2019-05-20T05:10:57.129Z,14.00
2019-05-20T05:16:09.832Z,14.00
2019-05-20T05:26:58.815Z,14.00
2019-05-20T05:37:42.051Z,14.10
2019-05-20T05:40:11.220Z,14.20
2019-05-20T05:45:17.600Z,14.20
2019-05-20T05:47:49.525Z,14.20
2019-05-20T05:53:25.782Z,14.20
2019-05-20T05:55:54.440Z,14.30
2019-05-20T05:58:45.955Z,14.30
2019-05-20T06:01:34.009Z,14.20
2019-05-20T06:04:02.755Z,14.30
2019-05-20T06:09:21.086Z,14.20
2019-05-20T06:11:57.660Z,14.20
2019-05-20T06:20:49.081Z,14.20
2019-05-20T06:23:18.126Z,14.20
2019-05-20T06:25:52.930Z,14.30
2019-05-20T06:28:24.883Z,14.40
2019-05-20T06:45:50.350Z,14.40
2019-05-20T07:05:20.836Z,14.70
2019-05-20T07:07:49.598Z,14.80
2019-05-20T07:10:18.187Z,14.80
2019-05-20T07:12:46.765Z,14.90
2019-05-20T07:30:25.888Z,15.20
2019-05-20T07:36:12.986Z,15.30
2019-05-20T07:56:58.058Z,15.60
2019-05-20T08:14:48.940Z,15.50
2019-05-20T08:17:29.177Z,15.40
2019-05-20T08:22:52.383Z,15.40
2019-05-20T08:37:45.479Z,15.60
2019-05-20T09:06:45.894Z,15.70
2019-05-20T09:09:14.868Z,15.80
2019-05-20T09:11:48.103Z,15.80
2019-05-20T10:56:13.998Z,17.10
2019-05-20T10:58:42.703Z,17.00
2019-05-20T11:01:11.288Z,16.90
2019-05-20T11:03:39.804Z,16.90
2019-05-20T11:06:08.391Z,16.80
2019-05-20T11:08:39.729Z,16.80
2019-05-20T11:11:13.203Z,16.80
2019-05-20T11:34:09.380Z,16.80
2019-05-20T12:08:02.858Z,16.70
2019-05-20T12:22:01.211Z,16.70
2019-05-20T12:33:30.229Z,16.70
2019-05-20T12:53:32.413Z,17.40
2019-05-20T12:56:01.075Z,17.60
2019-05-20T13:15:01.723Z,17.70
2019-05-20T13:17:49.497Z,17.60
2019-05-20T13:20:07.202Z,17.60
2019-05-20T13:22:42.560Z,17.60
2019-05-20T13:25:22.389Z,17.50
2019-05-20T13:27:38.324Z,17.50
2019-05-20T13:30:07.731Z,17.50
2019-05-20T13:32:36.348Z,17.50
2019-05-20T13:35:06.248Z,17.60
2019-05-20T13:37:34.863Z,17.60
2019-05-20T13:40:04.856Z,17.60
2019-05-20T13:42:33.779Z,17.50
2019-05-20T13:45:02.302Z,17.50
2019-05-20T13:47:31.732Z,17.50
2019-05-20T13:50:00.649Z,17.50
2019-05-20T13:52:29.232Z,17.50
2019-05-20T13:54:57.801Z,17.50
2019-05-20T13:57:26.393Z,17.40
2019-05-20T13:59:55.061Z,17.40
2019-05-20T14:02:23.628Z,17.30
2019-05-20T14:04:52.223Z,17.30
2019-05-20T14:07:20.719Z,17.20
2019-05-20T14:09:49.340Z,17.20
2019-05-20T14:12:17.937Z,17.10
2019-05-20T14:14:46.456Z,17.10
2019-05-20T14:17:15.044Z,17.10
2019-05-20T14:19:43.628Z,17.10
2019-05-20T14:22:12.273Z,17.00
2019-05-20T14:24:40.902Z,16.90
2019-05-20T14:27:09.477Z,16.90
2019-05-20T14:29:37.990Z,16.80
2019-05-20T14:32:06.583Z,16.80
2019-05-20T14:34:35.149Z,16.80
2019-05-20T14:37:03.734Z,16.90
2019-05-20T14:39:32.248Z,16.90
2019-05-20T14:42:00.773Z,16.80
2019-05-20T14:44:29.321Z,16.80
2019-05-20T14:46:57.852Z,16.80
2019-05-20T14:49:26.449Z,16.90
2019-05-20T14:51:55.053Z,16.90
2019-05-20T14:54:23.586Z,16.90
2019-05-20T14:56:52.147Z,17.00
2019-05-20T14:59:20.755Z,17.10
2019-05-20T15:01:49.301Z,17.10
2019-05-20T15:04:18.216Z,17.00
2019-05-20T15:06:46.797Z,17.00
2019-05-20T15:09:15.394Z,17.00
2019-05-20T15:11:44.000Z,16.90
2019-05-20T15:14:12.679Z,17.00
2019-05-20T15:16:41.216Z,16.90
2019-05-20T15:19:09.832Z,16.90
2019-05-20T15:21:38.495Z,16.90
2019-05-20T15:24:07.119Z,16.80
2019-05-20T15:26:35.703Z,16.90
2019-05-20T15:29:04.841Z,16.90
2019-05-20T15:31:33.746Z,16.90
2019-05-20T15:34:02.359Z,16.80
2019-05-20T15:36:30.931Z,16.70
2019-05-20T15:38:59.511Z,16.70
2019-05-20T15:41:28.127Z,16.70
2019-05-20T15:43:56.751Z,16.70
2019-05-20T15:46:25.300Z,16.60
2019-05-20T15:48:53.840Z,16.60
2019-05-20T15:51:22.394Z,16.60
2019-05-20T15:53:50.917Z,16.60
2019-05-20T15:56:19.433Z,16.60
2019-05-20T15:58:48.035Z,16.60
2019-05-20T16:01:16.652Z,16.50
2019-05-20T16:03:45.279Z,16.40
2019-05-20T16:06:13.892Z,16.40
2019-05-20T16:08:42.469Z,16.50
2019-05-20T16:11:10.995Z,16.50
2019-05-20T16:13:39.580Z,16.60
2019-05-20T16:16:08.105Z,16.60
2019-05-20T16:18:36.686Z,16.70
2019-05-20T16:21:07.003Z,16.70
2019-05-20T16:23:35.560Z,16.60
2019-05-20T16:26:04.142Z,16.50
2019-05-20T16:28:32.694Z,16.40
2019-05-20T16:31:01.205Z,16.40
2019-05-20T16:33:29.812Z,16.40
2019-05-20T16:35:58.451Z,16.30
2019-05-20T16:38:27.033Z,16.30
2019-05-20T16:40:55.711Z,16.20
2019-05-20T16:43:24.273Z,16.20
2019-05-20T16:45:52.778Z,16.10
2019-05-20T16:48:21.335Z,16.10
2019-05-20T16:50:49.873Z,16.10
2019-05-20T16:53:18.468Z,15.90
2019-05-20T16:55:47.123Z,15.80
2019-05-20T16:58:15.733Z,15.80
2019-05-20T17:00:44.452Z,15.80
2019-05-20T17:03:12.961Z,15.80
2019-05-20T17:05:41.566Z,15.80
2019-05-20T17:08:10.097Z,15.80
2019-05-20T17:10:38.671Z,15.80
2019-05-20T17:13:07.224Z,15.90
2019-05-20T17:15:35.847Z,15.90
2019-05-20T17:18:04.413Z,16.00
2019-05-20T17:20:33.044Z,16.10
2019-05-20T17:23:01.642Z,16.10
2019-05-20T17:25:30.272Z,16.00
2019-05-20T17:27:58.805Z,16.00
2019-05-20T17:30:27.285Z,16.00
2019-05-20T17:32:55.810Z,15.90
2019-05-20T17:35:24.345Z,15.90
2019-05-20T17:37:55.316Z,16.00
2019-05-20T17:40:23.391Z,16.00
2019-05-20T17:42:51.989Z,16.00
2019-05-20T17:45:20.859Z,16.00
2019-05-20T17:47:49.432Z,16.00
2019-05-20T17:50:18.017Z,16.00
2019-05-20T17:52:46.551Z,16.00
2019-05-20T17:55:15.335Z,15.90
2019-05-20T17:57:43.925Z,15.90
2019-05-20T18:00:14.158Z,15.90
2019-05-20T18:02:42.789Z,15.90
2019-05-20T18:05:14.684Z,15.80
2019-05-20T18:07:41.781Z,15.80
2019-05-20T18:10:11.040Z,15.80
2019-05-20T18:12:39.677Z,15.70
2019-05-20T18:15:08.502Z,15.70
2019-05-20T18:17:38.079Z,15.70
2019-05-20T18:20:06.658Z,15.70
2019-05-20T18:22:35.448Z,15.60
2019-05-20T18:25:05.352Z,15.60
2019-05-20T18:27:33.984Z,15.60
2019-05-20T18:30:02.559Z,15.60
2019-05-20T18:32:31.091Z,15.60
2019-05-20T18:34:59.757Z,15.60
2019-05-20T18:37:28.288Z,15.50
2019-05-20T18:40:11.139Z,15.50
2019-05-20T18:42:27.084Z,15.50
2019-05-20T18:44:55.699Z,15.40
2019-05-20T18:47:24.205Z,15.40
2019-05-20T18:49:52.816Z,15.30
2019-05-20T18:52:21.349Z,15.30
2019-05-20T18:54:49.916Z,15.20
2019-05-20T18:57:18.546Z,15.20
2019-05-20T18:59:47.075Z,15.10
2019-05-20T19:02:15.732Z,15.00
2019-05-20T19:04:44.336Z,14.90
2019-05-20T19:07:12.899Z,14.90
2019-05-20T19:09:41.497Z,14.90
2019-05-20T19:12:10.516Z,14.90
2019-05-20T19:14:39.079Z,14.70
2019-05-20T19:17:07.663Z,14.70
2019-05-20T19:19:36.285Z,14.60
2019-05-20T19:22:04.821Z,14.60
2019-05-20T19:24:33.353Z,14.50
2019-05-20T19:27:01.935Z,14.40
2019-05-20T19:29:30.542Z,14.40
2019-05-20T19:32:01.815Z,14.40
2019-05-20T19:34:29.310Z,14.40
2019-05-20T19:36:57.899Z,14.40
2019-05-20T19:39:26.452Z,14.40
2019-05-20T19:41:54.958Z,14.40
2019-05-20T19:44:23.575Z,14.40
2019-05-20T19:46:52.161Z,14.40
2019-05-20T19:49:20.781Z,14.30
2019-05-20T19:51:49.363Z,14.30
2019-05-20T19:54:17.887Z,14.30
2019-05-20T19:56:46.454Z,14.30
2019-05-20T19:59:14.972Z,14.30
2019-05-20T20:01:43.567Z,14.30
2019-05-20T20:04:12.117Z,14.20
2019-05-20T20:06:40.812Z,14.20
2019-05-20T20:09:09.503Z,14.10
2019-05-20T20:11:38.431Z,14.10
2019-05-20T20:14:06.972Z,14.10
2019-05-20T20:16:35.463Z,14.00
2019-05-20T20:19:04.100Z,14.00
2019-05-20T20:21:32.672Z,14.10
2019-05-20T20:24:01.247Z,14.00
2019-05-20T20:26:29.833Z,14.10
2019-05-20T20:28:58.337Z,14.00
2019-05-20T20:31:26.929Z,14.00
2019-05-20T20:33:55.572Z,13.90
2019-05-20T20:36:24.485Z,13.90
2019-05-20T20:38:52.975Z,13.70
2019-05-20T20:41:21.702Z,13.70
2019-05-20T20:43:50.377Z,13.60
2019-05-20T20:46:19.060Z,13.50
2019-05-20T20:48:47.554Z,13.50
2019-05-20T20:51:16.060Z,13.50
2019-05-20T20:53:44.793Z,13.50
2019-05-20T20:56:24.753Z,13.60
2019-05-20T20:58:43.590Z,13.50
2019-05-20T21:01:12.167Z,13.40
2019-05-20T21:03:40.731Z,13.40
2019-05-20T21:06:09.306Z,13.20
2019-05-20T21:08:37.886Z,13.20
2019-05-20T21:11:25.684Z,13.20
2019-05-20T21:13:54.261Z,13.20
2019-05-20T21:16:22.914Z,13.20
2019-05-20T21:18:51.448Z,13.20
2019-05-20T21:21:19.961Z,13.20
2019-05-20T21:23:48.478Z,13.20
2019-05-20T21:26:17.244Z,13.10
2019-05-20T21:28:48.953Z,13.10
2019-05-20T21:31:16.143Z,13.20
2019-05-20T21:33:44.801Z,13.10
2019-05-20T21:36:13.629Z,13.10
2019-05-20T21:38:42.250Z,13.10
2019-05-20T21:41:10.828Z,13.10
2019-05-20T21:43:39.368Z,13.10
2019-05-20T21:46:07.951Z,13.10
2019-05-20T21:48:36.513Z,13.00
2019-05-20T21:51:05.013Z,13.00
2019-05-20T21:53:33.590Z,13.00
2019-05-20T21:56:02.224Z,13.00
2019-05-20T21:58:31.171Z,13.00
2019-05-20T22:00:59.752Z,12.90
2019-05-20T22:03:28.297Z,12.90
2019-05-20T22:05:56.952Z,12.90
2019-05-20T22:08:25.435Z,12.90
2019-05-20T22:10:53.916Z,12.80
2019-05-20T22:13:22.458Z,12.80
2019-05-20T22:15:51.045Z,12.80
2019-05-20T22:18:19.615Z,12.90
2019-05-20T22:20:48.093Z,12.80
2019-05-20T22:23:23.907Z,12.80
2019-05-20T22:25:52.863Z,12.80
2019-05-20T22:28:21.451Z,12.80
2019-05-20T22:30:50.010Z,12.70
2019-05-20T22:33:18.542Z,12.70
2019-05-20T22:35:47.103Z,12.70
2019-05-20T22:38:15.693Z,12.60
2019-05-20T22:40:44.519Z,12.60
2019-05-20T22:43:13.227Z,12.60
2019-05-20T22:45:41.916Z,12.60
2019-05-20T22:48:10.450Z,12.60
2019-05-20T22:50:39.056Z,12.60
2019-05-20T22:53:07.601Z,12.60
2019-05-20T22:55:36.088Z,12.60
2019-05-20T22:58:04.727Z,12.60
2019-05-20T23:00:33.212Z,12.60
2019-05-20T23:03:01.717Z,12.60
2019-05-20T23:05:30.284Z,12.60
2019-05-20T23:07:58.757Z,12.60
2019-05-20T23:10:27.261Z,12.60
2019-05-20T23:12:55.847Z,12.50
2019-05-20T23:15:24.565Z,12.50
2019-05-20T23:17:53.053Z,12.50
2019-05-20T23:20:21.599Z,12.50
2019-05-20T23:22:50.232Z,12.50
2019-05-20T23:25:18.735Z,12.60
2019-05-20T23:27:47.440Z,12.60
2019-05-20T23:30:16.118Z,12.60
2019-05-20T23:32:44.697Z,12.70
2019-05-20T23:35:13.240Z,12.70
2019-05-20T23:37:41.797Z,12.60
2019-05-20T23:40:10.397Z,12.70
2019-05-20T23:42:38.876Z,12.70
2019-05-20T23:45:07.533Z,12.70
2019-05-20T23:47:36.113Z,12.60
2019-05-20T23:50:05.561Z,12.60
2019-05-20T23:52:34.253Z,12.70
2019-05-20T23:55:02.725Z,12.70
2019-05-20T23:57:31.321Z,12.70
2019-05-20T23:59:59.894Z,12.70
